Latest Weather Observations for Grove

IDT60901

Issued at 6:41 am EST Sunday 28 August 2016 (issued every 10 minutes, with the page automatically refreshed every 10 minutes)

About weather observations | Map of Hobart area stations | Latest observations for Hobart area | Other Formats
Station Details ID: 094220 Name: GROVE (RESEARCH STATION) Lat: -42.99 Lon: 147.07 Height: 65.0 m
Data from the previous 72 hours. | See also: Recent months at Grove
Date/Time
EST
Temp
°C
App
Temp
°C
Dew
Point
°C
Rel
Hum
%
Delta-T
°C
Wind Press
QNH
hPa
Press
MSL
hPa
Rain since
9am
mm
Dir  Spd
km/h
Gust
km/h
Spd
kts
Gust
kts
28/06:30am 3.6 0.9 2.9 95 0.3 SSE 6 6 3 3 - - 2.4
28/06:00am 3.3 0.5 2.0 91 0.5 S 6 7 3 4 - - 2.4
28/05:30am 4.3 1.0 2.6 89 0.7 WSW 9 13 5 7 - - 2.4
28/05:00am 3.2 0.4 2.2 93 0.4 SSE 6 9 3 5 - - 2.4
28/04:30am 4.7 2.4 2.7 87 0.8 S 4 9 2 5 - - 2.4
28/04:00am 5.5 2.9 3.3 86 0.9 SSE 6 9 3 5 - - 2.4
28/03:30am 6.3 2.7 2.7 78 1.5 WSW 11 17 6 9 - - 2.4
28/03:00am 6.3 3.5 2.9 79 1.4 SSW 7 11 4 6 - - 2.4
28/02:30am 6.7 3.4 2.6 75 1.7 WSW 9 19 5 10 - - 2.4
28/02:00am 6.9 2.3 3.6 79 1.4 WSW 17 26 9 14 - - 2.4
28/01:30am 7.9 3.7 3.7 75 1.8 WSW 15 20 8 11 - - 2.4
28/01:00am 8.2 3.4 4.6 78 1.6 WSW 19 30 10 16 - - 2.4
28/12:30am 7.7 4.9 6.8 94 0.4 SW 11 19 6 10 - - 2.4
28/12:00am 8.2 5.2 5.8 85 1.1 W 11 24 6 13 - - 2.0
 
Date/Time
EST
Temp
°C
App
Temp
°C
Dew
Point
°C
Rel
Hum
%
Delta-T
°C
Wind Press
QNH
hPa
Press
MSL
hPa
Rain since
9am
mm
Dir  Spd
km/h
Gust
km/h
Spd
kts
Gust
kts
27/11:30pm 9.2 6.0 5.2 76 1.8 WNW 11 19 6 10 - - 1.2
27/11:00pm 9.8 7.1 5.4 74 2.0 W 9 19 5 10 - - 0.4
27/10:30pm 11.0 6.5 4.1 62 3.1 WNW 17 41 9 22 - - 0.0
27/10:00pm 11.1 6.3 2.8 56 3.6 WNW 17 39 9 21 - - 0.0
27/09:30pm 9.7 6.2 3.5 65 2.7 N 11 17 6 9 - - 0.0
27/09:00pm 10.6 6.6 3.0 59 3.3 N 13 30 7 16 - - 0.0
27/08:30pm 10.6 6.3 3.0 59 3.3 N 15 28 8 15 - - 0.0
27/08:00pm 10.6 6.2 2.7 58 3.4 NNW 15 30 8 16 - - 0.0
27/07:30pm 10.8 6.3 2.4 56 3.6 WNW 15 32 8 17 - - 0.0
27/07:00pm 11.2 5.9 2.1 53 3.9 NNW 19 39 10 21 - - 0.0
27/06:30pm 11.3 5.4 1.9 52 4.0 NW 22 48 12 26 - - 0.0
27/06:00pm 11.3 5.9 2.2 53 3.9 W 20 37 11 20 - - 0.0
27/05:30pm 10.8 6.2 3.8 62 3.1 NNW 17 28 9 15 - - 0.0
27/05:00pm 11.0 5.9 4.3 63 3.0 NW 20 41 11 22 - - 0.0
27/04:30pm 12.5 6.6 1.8 48 4.6 WNW 22 33 12 18 - - 0.0
27/04:01pm 13.0 5.9 1.6 46 4.9 NW 28 50 15 27 - - 0.0
27/04:00pm 13.1 6.5 1.8 46 4.9 NW 26 50 14 27 - - 0.0
27/03:30pm 12.5 7.2 3.0 52 4.2 WNW 20 39 11 21 - - 0.0
27/03:00pm 12.8 7.4 2.3 49 4.6 WNW 20 48 11 26 - - 0.0
27/02:32pm 13.1 6.2 2.7 49 4.6 W 28 48 15 26 - - 0.0
27/02:30pm 13.2 7.2 3.1 50 4.5 W 24 48 13 26 - - 0.0
27/02:00pm 14.2 9.2 3.4 48 4.9 W 19 30 10 16 - - 0.0
27/01:30pm 14.2 8.6 3.7 49 4.8 WNW 22 39 12 21 - - 0.0
27/01:06pm 14.1 7.3 3.2 48 4.9 WNW 28 50 15 27 - - 0.0
27/01:00pm 14.1 8.9 3.5 49 4.8 NNW 20 35 11 19 - - 0.0
27/12:30pm 13.2 7.9 2.8 49 4.6 NNW 20 33 11 18 - - 0.0
27/12:00pm 12.9 9.0 3.6 53 4.2 NW 13 30 7 16 - - 0.0
27/11:30am 12.6 9.8 3.4 53 4.1 WNW 7 15 4 8 - - 0.0
27/11:00am 12.2 8.8 4.0 57 3.7 WNW 11 19 6 10 - - 0.0
27/10:30am 12.4 7.7 3.4 54 4.0 WNW 17 26 9 14 - - 0.0
27/10:00am 12.6 7.9 3.1 52 4.2 NW 17 26 9 14 - - 0.0
27/09:30am 13.1 8.8 3.3 51 4.4 NW 15 28 8 15 - - 0.0
27/09:00am 12.7 8.6 2.4 49 4.5 WNW 13 26 7 14 - - 0.0
27/08:30am 12.4 8.5 3.2 53 4.1 WNW 13 24 7 13 - - 0.0
27/08:00am 11.2 7.6 3.2 58 3.5 NW 11 17 6 9 - - 0.0
27/07:30am 10.7 6.7 2.6 57 3.5 W 13 28 7 15 - - 0.0
27/07:00am 9.4 7.2 3.1 65 2.7 ENE 4 9 2 5 - - 0.0
27/06:30am 9.4 6.4 4.2 70 2.3 SSE 9 19 5 10 - - 0.0
27/06:00am 9.9 7.1 3.2 63 2.9 NNE 7 13 4 7 - - 0.0
27/05:30am 9.9 6.8 3.5 64 2.8 NNW 9 17 5 9 - - 0.0
27/05:00am 8.8 6.3 3.5 69 2.3 WNW 6 11 3 6 - - 0.0
27/04:30am 7.7 4.5 3.2 73 1.9 W 9 15 5 8 - - 0.0
27/04:00am 5.9 2.7 3.3 83 1.1 ENE 9 15 5 8 - - 0.0
27/03:30am 4.6 1.3 2.4 86 0.9 ENE 9 11 5 6 - - 0.0
27/03:00am 5.0 1.8 3.1 87 0.8 NE 9 13 5 7 - - 0.0
27/02:30am 4.7 1.5 3.2 90 0.6 NE 9 13 5 7 - - 0.0
27/02:00am 3.9 1.2 2.4 90 0.6 SSW 6 11 3 6 - - 0.0
27/01:30am 5.1 2.9 3.2 87 0.8 NNW 4 7 2 4 - - 0.0
27/01:00am 5.8 2.6 3.2 83 1.1 S 9 11 5 6 - - 0.0
27/12:30am 6.5 4.7 3.2 79 1.4 NNE 2 6 1 3 - - 0.0
27/12:00am 6.7 3.9 3.4 79 1.4 W 7 11 4 6 - - 0.0
 
Date/Time
EST
Temp
°C
App
Temp
°C
Dew
Point
°C
Rel
Hum
%
Delta-T
°C
Wind Press
QNH
hPa
Press
MSL
hPa
Rain since
9am
mm
Dir  Spd
km/h
Gust
km/h
Spd
kts
Gust
kts
26/11:30pm 5.8 3.0 2.9 82 1.2 ENE 7 11 4 6 - - 0.0
26/11:00pm 6.2 3.5 3.9 85 1.0 ENE 7 9 4 5 - - 0.0
26/10:30pm 10.0 6.8 3.3 63 2.9 SSE 9 13 5 7 - - 0.0
26/10:00pm 10.5 8.7 3.4 61 3.1 WNW 2 9 1 5 - - 0.0
26/09:30pm 9.8 6.8 3.9 66 2.6 E 9 19 5 10 - - 0.0
26/09:00pm 9.3 6.5 3.3 66 2.6 E 7 15 4 8 - - 0.0
26/08:30pm 9.7 6.6 3.8 66 2.6 ESE 9 11 5 6 - - 0.0
26/08:00pm 9.7 7.0 3.8 66 2.6 ESE 7 9 4 5 - - 0.0
26/07:30pm 10.8 8.1 3.8 62 3.1 NW 7 15 4 8 - - 0.0
26/07:00pm 11.0 8.7 4.6 64 2.9 NNW 6 9 3 5 - - 0.0
26/06:30pm 10.9 8.9 4.5 64 2.9 NW 4 9 2 5 - - 0.0
26/06:00pm 11.3 9.7 4.4 62 3.1 SSE 2 15 1 8 - - 0.0
26/05:30pm 11.7 8.3 4.2 60 3.4 NNW 11 20 6 11 - - 0.0
26/05:00pm 12.5 10.3 5.2 61 3.4 ENE 6 13 3 7 - - 0.0
26/04:30pm 12.9 9.4 3.3 52 4.3 NW 11 20 6 11 - - 0.0
26/04:00pm 13.6 10.5 3.7 51 4.5 W 9 20 5 11 - - 0.0
26/03:30pm 13.6 9.0 3.7 51 4.5 NW 17 28 9 15 - - 0.0
26/03:00pm 13.8 10.0 3.7 50 4.6 NW 13 24 7 13 - - 0.0
26/02:30pm 13.6 8.5 2.8 48 4.8 NW 19 26 10 14 - - 0.0
26/02:00pm 14.3 10.4 3.2 47 5.0 W 13 24 7 13 - - 0.0
26/01:30pm 13.7 9.0 2.9 48 4.8 W 17 26 9 14 - - 0.0
26/01:00pm 13.4 8.1 2.8 48 4.7 W 20 32 11 17 - - 0.0
26/12:30pm 13.6 8.2 2.5 47 4.9 WNW 20 41 11 22 - - 0.0
26/12:00pm 12.5 8.6 3.3 53 4.1 WSW 13 20 7 11 - - 0.0
26/11:30am 12.6 8.0 3.7 54 4.0 W 17 26 9 14 - - 0.0
26/11:00am 11.8 5.4 3.2 55 3.8 W 26 56 14 30 - - 0.0
26/10:30am 11.7 8.5 3.3 56 3.7 S 9 13 5 7 - - 0.0
26/10:00am 10.8 8.0 3.3 60 3.3 ESE 7 15 4 8 - - 0.0
26/09:30am 9.6 7.4 3.4 65 2.7 S 4 7 2 4 - - 0.0
26/09:00am 7.6 5.2 4.4 80 1.4 SE 6 7 3 4 - - 0.6
26/08:30am 6.7 4.9 3.4 79 1.4 S 2 11 1 6 - - 0.6
26/08:00am 4.4 2.9 3.2 92 0.5 CALM 0 0 0 0 - - 0.6
26/07:30am 2.4 -1.0 1.6 94 0.3 NE 9 11 5 6 - - 0.4
26/07:00am 2.0 -0.9 1.5 96 0.2 ENE 6 9 3 5 - - 0.4
26/06:30am 1.6 -0.6 1.1 96 0.2 NE 2 9 1 5 - - 0.4
26/06:00am 1.0 -2.5 1.0 100 0.0 NNE 9 13 5 7 - - 0.4
26/05:30am 0.5 -2.7 0.5 100 0.0 NNE 7 13 4 7 - - 0.4
26/05:00am 0.3 - - - - NE 7 11 4 6 - - 0.4
26/04:30am 0.9 -1.7 0.9 100 0.0 NNE 4 9 2 5 - - 0.4
26/04:00am 1.3 -1.7 0.8 96 0.2 E 6 7 3 4 - - 0.4
26/03:30am 1.0 -0.9 0.7 98 0.1 CALM 0 0 0 0 - - 0.4
26/03:00am 1.6 -0.2 1.1 96 0.2 CALM 0 0 0 0 - - 0.4
26/02:30am 2.2 -0.3 1.4 94 0.3 SE 4 7 2 4 - - 0.4
26/02:00am 2.9 1.2 1.6 91 0.5 CALM 0 0 0 0 - - 0.4
26/01:30am 3.2 1.5 1.7 90 0.6 CALM 0 0 0 0 - - 0.4
26/01:00am 3.7 2.0 1.7 87 0.8 CALM 0 6 0 3 - - 0.4
26/12:30am 3.5 0.6 1.7 88 0.7 E 6 7 3 4 - - 0.4
26/12:00am 3.3 0.5 2.0 91 0.5 NNW 6 13 3 7 - - 0.4
 
Date/Time
EST
Temp
°C
App
Temp
°C
Dew
Point
°C
Rel
Hum
%
Delta-T
°C
Wind Press
QNH
hPa
Press
MSL
hPa
Rain since
9am
mm
Dir  Spd
km/h
Gust
km/h
Spd
kts
Gust
kts
25/11:30pm 3.3 0.3 2.0 91 0.5 E 7 9 4 5 - - 0.4
25/11:00pm 2.6 -0.4 2.1 96 0.2 NNE 7 13 4 7 - - 0.4
25/10:30pm 2.5 0.8 2.0 96 0.2 CALM 0 0 0 0 - - 0.4
25/10:00pm 3.0 0.2 2.2 94 0.3 NE 6 9 3 5 - - 0.4
25/09:30pm 3.7 1.0 2.7 93 0.4 ENE 6 11 3 6 - - 0.4
25/09:00pm 3.9 1.7 3.2 95 0.3 ENE 4 6 2 3 - - 0.4
25/08:30pm 3.7 1.0 2.5 92 0.5 NNE 6 11 3 6 - - 0.4
25/08:00pm 4.2 1.9 3.0 92 0.5 N 4 7 2 4 - - 0.4
25/07:30pm 5.3 2.7 3.4 87 0.8 WNW 6 7 3 4 - - 0.4
25/07:00pm 6.5 3.8 2.6 76 1.6 SW 6 7 3 4 - - 0.4
25/06:30pm 7.6 4.6 2.0 67 2.3 SSW 7 11 4 6 - - 0.4
25/06:00pm 8.3 4.1 1.5 62 2.8 SW 13 20 7 11 - - 0.4
25/05:30pm 8.6 4.9 2.1 63 2.7 WSW 11 17 6 9 - - 0.4
25/05:00pm 8.4 5.6 3.0 69 2.3 SW 7 11 4 6 - - 0.4
25/04:30pm 8.9 5.3 2.8 65 2.6 WSW 11 19 6 10 - - 0.4
25/04:00pm 10.0 6.6 3.9 66 2.7 W 11 17 6 9 - - 0.4
25/03:30pm 10.0 7.4 4.4 68 2.5 SW 7 9 4 5 - - 0.4
25/03:00pm 9.7 6.9 5.3 74 2.0 SW 9 13 5 7 - - 0.4
25/02:30pm 9.9 6.3 4.8 70 2.3 W 13 20 7 11 - - 0.4
25/02:00pm 9.2 7.2 6.2 81 1.4 W 6 9 3 5 - - 0.4
25/01:30pm 8.7 4.7 4.9 77 1.7 S 15 24 8 13 - - 0.2
25/01:00pm 10.2 8.2 4.4 67 2.6 SW 4 11 2 6 - - 0.0
25/12:30pm 9.5 5.9 5.1 74 2.0 S 13 19 7 10 - - 0.0
25/12:00pm 9.8 7.3 3.6 65 2.7 NE 6 11 3 6 - - 0.0
25/11:30am 9.7 7.9 3.5 65 2.7 E 2 6 1 3 - - 0.0
25/11:00am 8.7 6.2 3.6 70 2.2 SSE 6 7 3 4 - - 0.0
25/10:30am 8.7 5.9 3.4 69 2.3 ESE 7 9 4 5 - - 0.0
25/10:00am 6.7 5.0 3.9 82 1.2 NNE 2 6 1 3 - - 0.0
25/09:30am 4.9 2.6 3.0 87 0.8 N 4 9 2 5 - - 0.0
25/09:00am 4.0 2.5 2.8 92 0.5 CALM 0 0 0 0 - - 0.0
25/08:30am 3.0 1.3 2.0 93 0.4 CALM 0 0 0 0 - - 0.0
25/08:00am 2.1 0.4 1.8 98 0.1 CALM 0 0 0 0 - - 0.0
25/07:30am 0.5 -2.8 0.2 98 0.1 N 7 7 4 4 - - 0.0
25/07:00am 0.3 - - - - NNE 7 9 4 5 - - 0.0

Latest Capital City Observations: Canberra | Sydney | Melbourne | Brisbane | Adelaide | Perth | Hobart | Darwin

Other Formats:

Comma delimited format used in spreadsheet applications
http://www.bom.gov.au/fwo/IDT60901/IDT60901.95977.axf

JavaScript Object Notation format (JSON) in row-major order
http://www.bom.gov.au/fwo/IDT60901/IDT60901.95977.json